sensor_id;sensor_type;location;lat;lon;timestamp;temperature;humidity
81867;DHT22;71318;-36.550;-64.300;2023-09-07T00:00:50;9.60;75.50
81867;DHT22;71318;-36.550;-64.300;2023-09-07T00:03:16;9.60;74.90
81867;DHT22;71318;-36.550;-64.300;2023-09-07T00:05:43;9.50;75.00
81867;DHT22;71318;-36.550;-64.300;2023-09-07T00:08:09;9.60;74.60
81867;DHT22;71318;-36.550;-64.300;2023-09-07T00:10:36;9.60;74.90
81867;DHT22;71318;-36.550;-64.300;2023-09-07T00:13:03;9.60;75.30
81867;DHT22;71318;-36.550;-64.300;2023-09-07T00:15:29;9.50;75.60
81867;DHT22;71318;-36.550;-64.300;2023-09-07T00:17:56;9.60;75.50
81867;DHT22;71318;-36.550;-64.300;2023-09-07T00:20:23;9.60;75.80
81867;DHT22;71318;-36.550;-64.300;2023-09-07T00:22:58;9.60;75.90
81867;DHT22;71318;-36.550;-64.300;2023-09-07T00:25:26;9.60;76.10
81867;DHT22;71318;-36.550;-64.300;2023-09-07T00:27:53;9.50;75.90
81867;DHT22;71318;-36.550;-64.300;2023-09-07T00:30:19;9.60;75.80
81867;DHT22;71318;-36.550;-64.300;2023-09-07T00:32:45;9.50;75.70
81867;DHT22;71318;-36.550;-64.300;2023-09-07T00:35:12;9.60;75.60
81867;DHT22;71318;-36.550;-64.300;2023-09-07T00:37:38;9.50;75.60
81867;DHT22;71318;-36.550;-64.300;2023-09-07T00:40:05;9.50;75.70
81867;DHT22;71318;-36.550;-64.300;2023-09-07T00:42:35;9.50;75.60
81867;DHT22;71318;-36.550;-64.300;2023-09-07T00:45:02;9.50;75.50
81867;DHT22;71318;-36.550;-64.300;2023-09-07T00:47:28;9.60;75.40
81867;DHT22;71318;-36.550;-64.300;2023-09-07T00:49:55;9.50;75.30
81867;DHT22;71318;-36.550;-64.300;2023-09-07T00:52:21;9.50;75.40
81867;DHT22;71318;-36.550;-64.300;2023-09-07T00:54:48;9.50;75.20
81867;DHT22;71318;-36.550;-64.300;2023-09-07T00:57:15;9.50;74.80
81867;DHT22;71318;-36.550;-64.300;2023-09-07T00:59:41;9.50;75.50
81867;DHT22;71318;-36.550;-64.300;2023-09-07T01:02:08;9.50;75.00
81867;DHT22;71318;-36.550;-64.300;2023-09-07T01:04:34;9.50;75.20
81867;DHT22;71318;-36.550;-64.300;2023-09-07T01:07:20;9.50;75.10
81867;DHT22;71318;-36.550;-64.300;2023-09-07T01:09:47;9.50;74.80
81867;DHT22;71318;-36.550;-64.300;2023-09-07T01:12:15;9.50;74.90
81867;DHT22;71318;-36.550;-64.300;2023-09-07T01:14:41;9.50;74.80
81867;DHT22;71318;-36.550;-64.300;2023-09-07T01:17:08;9.50;74.90
81867;DHT22;71318;-36.550;-64.300;2023-09-07T01:19:36;9.50;74.60
81867;DHT22;71318;-36.550;-64.300;2023-09-07T01:22:03;9.50;74.80
81867;DHT22;71318;-36.550;-64.300;2023-09-07T01:24:30;9.40;74.00
81867;DHT22;71318;-36.550;-64.300;2023-09-07T01:26:57;9.40;73.70
81867;DHT22;71318;-36.550;-64.300;2023-09-07T01:29:23;9.40;73.90
81867;DHT22;71318;-36.550;-64.300;2023-09-07T01:31:52;9.40;73.80
81867;DHT22;71318;-36.550;-64.300;2023-09-07T01:34:18;9.40;73.70
81867;DHT22;71318;-36.550;-64.300;2023-09-07T01:36:45;9.40;73.90
81867;DHT22;71318;-36.550;-64.300;2023-09-07T01:39:11;9.40;74.10
81867;DHT22;71318;-36.550;-64.300;2023-09-07T01:41:41;9.40;73.90
81867;DHT22;71318;-36.550;-64.300;2023-09-07T01:44:07;9.40;73.60
81867;DHT22;71318;-36.550;-64.300;2023-09-07T01:46:33;9.40;73.60
81867;DHT22;71318;-36.550;-64.300;2023-09-07T01:49:01;9.30;74.10
81867;DHT22;71318;-36.550;-64.300;2023-09-07T01:51:28;9.30;74.80
81867;DHT22;71318;-36.550;-64.300;2023-09-07T01:53:54;9.20;75.30
81867;DHT22;71318;-36.550;-64.300;2023-09-07T01:56:21;9.10;76.50
81867;DHT22;71318;-36.550;-64.300;2023-09-07T01:58:47;9.00;77.30
81867;DHT22;71318;-36.550;-64.300;2023-09-07T02:01:23;8.90;78.40
81867;DHT22;71318;-36.550;-64.300;2023-09-07T02:03:50;8.90;78.60
81867;DHT22;71318;-36.550;-64.300;2023-09-07T02:06:16;8.80;79.70
81867;DHT22;71318;-36.550;-64.300;2023-09-07T02:08:44;8.70;79.70
81867;DHT22;71318;-36.550;-64.300;2023-09-07T02:11:10;8.60;81.20
81867;DHT22;71318;-36.550;-64.300;2023-09-07T02:13:36;8.50;82.80
81867;DHT22;71318;-36.550;-64.300;2023-09-07T02:16:03;8.50;82.50
81867;DHT22;71318;-36.550;-64.300;2023-09-07T02:18:31;8.50;82.60
81867;DHT22;71318;-36.550;-64.300;2023-09-07T02:21:01;8.50;81.40
81867;DHT22;71318;-36.550;-64.300;2023-09-07T02:23:28;8.60;80.80
81867;DHT22;71318;-36.550;-64.300;2023-09-07T02:25:58;8.60;81.80
81867;DHT22;71318;-36.550;-64.300;2023-09-07T02:28:27;8.50;82.20
81867;DHT22;71318;-36.550;-64.300;2023-09-07T02:30:53;8.40;82.80
81867;DHT22;71318;-36.550;-64.300;2023-09-07T02:33:20;8.30;84.00
81867;DHT22;71318;-36.550;-64.300;2023-09-07T02:35:49;8.30;83.70
81867;DHT22;71318;-36.550;-64.300;2023-09-07T02:38:18;8.20;84.70
81867;DHT22;71318;-36.550;-64.300;2023-09-07T02:40:45;8.20;85.50
81867;DHT22;71318;-36.550;-64.300;2023-09-07T02:43:12;8.20;84.20
81867;DHT22;71318;-36.550;-64.300;2023-09-07T02:45:39;8.30;83.60
81867;DHT22;71318;-36.550;-64.300;2023-09-07T02:48:05;8.30;83.10
81867;DHT22;71318;-36.550;-64.300;2023-09-07T02:50:32;8.40;82.10
81867;DHT22;71318;-36.550;-64.300;2023-09-07T02:52:59;8.40;82.00
81867;DHT22;71318;-36.550;-64.300;2023-09-07T02:55:26;8.40;81.70
81867;DHT22;71318;-36.550;-64.300;2023-09-07T02:57:53;8.50;81.20
81867;DHT22;71318;-36.550;-64.300;2023-09-07T03:00:24;8.50;80.80
81867;DHT22;71318;-36.550;-64.300;2023-09-07T03:02:50;8.60;80.80
81867;DHT22;71318;-36.550;-64.300;2023-09-07T03:05:20;8.60;80.20
81867;DHT22;71318;-36.550;-64.300;2023-09-07T03:07:46;8.60;79.60
81867;DHT22;71318;-36.550;-64.300;2023-09-07T03:10:15;8.70;78.90
81867;DHT22;71318;-36.550;-64.300;2023-09-07T03:12:43;8.80;78.60
81867;DHT22;71318;-36.550;-64.300;2023-09-07T03:15:09;8.80;78.40
81867;DHT22;71318;-36.550;-64.300;2023-09-07T03:17:35;8.90;78.10
81867;DHT22;71318;-36.550;-64.300;2023-09-07T03:20:02;8.90;77.10
81867;DHT22;71318;-36.550;-64.300;2023-09-07T03:22:45;8.90;77.10
81867;DHT22;71318;-36.550;-64.300;2023-09-07T03:25:11;8.90;77.30
81867;DHT22;71318;-36.550;-64.300;2023-09-07T03:27:38;8.90;77.50
81867;DHT22;71318;-36.550;-64.300;2023-09-07T03:30:04;8.90;78.00
81867;DHT22;71318;-36.550;-64.300;2023-09-07T03:32:31;8.90;77.90
81867;DHT22;71318;-36.550;-64.300;2023-09-07T03:34:59;8.90;78.00
81867;DHT22;71318;-36.550;-64.300;2023-09-07T03:37:26;9.00;78.20
81867;DHT22;71318;-36.550;-64.300;2023-09-07T03:39:54;9.00;78.10
81867;DHT22;71318;-36.550;-64.300;2023-09-07T03:45:24;8.90;78.70
81867;DHT22;71318;-36.550;-64.300;2023-09-07T03:47:50;8.90;79.00
81867;DHT22;71318;-36.550;-64.300;2023-09-07T03:50:17;8.90;79.30
81867;DHT22;71318;-36.550;-64.300;2023-09-07T03:52:43;8.90;79.50
81867;DHT22;71318;-36.550;-64.300;2023-09-07T03:55:09;8.90;79.80
81867;DHT22;71318;-36.550;-64.300;2023-09-07T03:57:36;8.90;79.90
81867;DHT22;71318;-36.550;-64.300;2023-09-07T04:00:06;8.90;80.00
81867;DHT22;71318;-36.550;-64.300;2023-09-07T04:02:33;8.90;80.10
81867;DHT22;71318;-36.550;-64.300;2023-09-07T04:05:00;8.90;80.30
81867;DHT22;71318;-36.550;-64.300;2023-09-07T04:07:31;8.90;80.40
81867;DHT22;71318;-36.550;-64.300;2023-09-07T04:09:58;8.80;80.80
81867;DHT22;71318;-36.550;-64.300;2023-09-07T04:12:25;8.80;82.00
81867;DHT22;71318;-36.550;-64.300;2023-09-07T04:14:52;8.60;83.40
81867;DHT22;71318;-36.550;-64.300;2023-09-07T04:17:18;8.50;85.60
81867;DHT22;71318;-36.550;-64.300;2023-09-07T04:19:45;8.20;88.50
81867;DHT22;71318;-36.550;-64.300;2023-09-07T04:22:12;8.10;89.30
81867;DHT22;71318;-36.550;-64.300;2023-09-07T04:24:38;8.00;90.70
81867;DHT22;71318;-36.550;-64.300;2023-09-07T04:27:04;7.90;92.70
81867;DHT22;71318;-36.550;-64.300;2023-09-07T04:29:31;7.90;93.10
81867;DHT22;71318;-36.550;-64.300;2023-09-07T04:31:57;7.80;93.60
81867;DHT22;71318;-36.550;-64.300;2023-09-07T04:34:24;7.70;95.20
81867;DHT22;71318;-36.550;-64.300;2023-09-07T04:36:50;7.60;95.30
81867;DHT22;71318;-36.550;-64.300;2023-09-07T04:39:17;7.60;96.20
81867;DHT22;71318;-36.550;-64.300;2023-09-07T04:41:43;7.60;95.50
81867;DHT22;71318;-36.550;-64.300;2023-09-07T04:44:10;7.60;96.40
81867;DHT22;71318;-36.550;-64.300;2023-09-07T04:46:36;7.60;97.10
81867;DHT22;71318;-36.550;-64.300;2023-09-07T04:49:02;7.60;97.60
81867;DHT22;71318;-36.550;-64.300;2023-09-07T04:51:29;7.60;97.00
81867;DHT22;71318;-36.550;-64.300;2023-09-07T04:53:55;7.60;97.20
81867;DHT22;71318;-36.550;-64.300;2023-09-07T04:56:22;7.50;98.50
81867;DHT22;71318;-36.550;-64.300;2023-09-07T04:58:49;7.40;99.80
81867;DHT22;71318;-36.550;-64.300;2023-09-07T05:01:15;7.30;99.90
81867;DHT22;71318;-36.550;-64.300;2023-09-07T05:03:41;7.40;99.90
81867;DHT22;71318;-36.550;-64.300;2023-09-07T05:06:08;7.40;99.90
81867;DHT22;71318;-36.550;-64.300;2023-09-07T05:08:34;7.30;99.90
81867;DHT22;71318;-36.550;-64.300;2023-09-07T05:11:02;7.30;99.90
81867;DHT22;71318;-36.550;-64.300;2023-09-07T05:13:29;7.30;99.90
81867;DHT22;71318;-36.550;-64.300;2023-09-07T05:15:55;7.30;99.90
81867;DHT22;71318;-36.550;-64.300;2023-09-07T05:18:22;7.20;99.90
81867;DHT22;71318;-36.550;-64.300;2023-09-07T05:20:49;7.20;99.90
81867;DHT22;71318;-36.550;-64.300;2023-09-07T05:23:17;7.20;99.90
81867;DHT22;71318;-36.550;-64.300;2023-09-07T05:25:45;7.20;99.90
81867;DHT22;71318;-36.550;-64.300;2023-09-07T05:28:14;7.20;99.90
81867;DHT22;71318;-36.550;-64.300;2023-09-07T05:30:41;7.10;99.90
81867;DHT22;71318;-36.550;-64.300;2023-09-07T05:33:13;7.10;99.90
81867;DHT22;71318;-36.550;-64.300;2023-09-07T05:35:40;7.10;99.90
81867;DHT22;71318;-36.550;-64.300;2023-09-07T05:38:08;7.10;99.90
81867;DHT22;71318;-36.550;-64.300;2023-09-07T05:40:35;7.10;99.90
81867;DHT22;71318;-36.550;-64.300;2023-09-07T05:43:01;7.10;99.90
81867;DHT22;71318;-36.550;-64.300;2023-09-07T05:45:40;7.10;99.90
81867;DHT22;71318;-36.550;-64.300;2023-09-07T05:48:07;7.10;99.90
81867;DHT22;71318;-36.550;-64.300;2023-09-07T05:50:34;7.10;99.90
81867;DHT22;71318;-36.550;-64.300;2023-09-07T05:53:01;7.10;99.90
81867;DHT22;71318;-36.550;-64.300;2023-09-07T05:55:28;7.10;99.90
81867;DHT22;71318;-36.550;-64.300;2023-09-07T05:57:55;7.10;99.90
81867;DHT22;71318;-36.550;-64.300;2023-09-07T06:00:21;7.10;99.90
81867;DHT22;71318;-36.550;-64.300;2023-09-07T06:02:49;7.20;99.90
81867;DHT22;71318;-36.550;-64.300;2023-09-07T06:05:16;7.20;99.90
81867;DHT22;71318;-36.550;-64.300;2023-09-07T06:07:43;7.20;99.90
81867;DHT22;71318;-36.550;-64.300;2023-09-07T06:10:09;7.20;99.90
81867;DHT22;71318;-36.550;-64.300;2023-09-07T06:12:36;7.10;99.90
81867;DHT22;71318;-36.550;-64.300;2023-09-07T06:15:02;7.10;99.90
81867;DHT22;71318;-36.550;-64.300;2023-09-07T06:17:29;7.10;99.90
81867;DHT22;71318;-36.550;-64.300;2023-09-07T06:19:56;7.10;99.90
81867;DHT22;71318;-36.550;-64.300;2023-09-07T06:22:22;7.00;99.90
81867;DHT22;71318;-36.550;-64.300;2023-09-07T06:24:49;7.00;99.90
81867;DHT22;71318;-36.550;-64.300;2023-09-07T06:27:15;7.00;99.90
81867;DHT22;71318;-36.550;-64.300;2023-09-07T06:29:41;7.00;99.90
81867;DHT22;71318;-36.550;-64.300;2023-09-07T06:32:08;6.90;99.90
81867;DHT22;71318;-36.550;-64.300;2023-09-07T06:34:36;6.90;99.90
81867;DHT22;71318;-36.550;-64.300;2023-09-07T06:37:02;6.90;99.90
81867;DHT22;71318;-36.550;-64.300;2023-09-07T06:39:28;6.90;99.90
81867;DHT22;71318;-36.550;-64.300;2023-09-07T06:41:55;6.90;99.90
81867;DHT22;71318;-36.550;-64.300;2023-09-07T06:44:21;6.90;99.90
81867;DHT22;71318;-36.550;-64.300;2023-09-07T06:46:48;6.80;99.90
81867;DHT22;71318;-36.550;-64.300;2023-09-07T06:49:15;6.80;99.90
81867;DHT22;71318;-36.550;-64.300;2023-09-07T06:51:41;6.80;99.90
81867;DHT22;71318;-36.550;-64.300;2023-09-07T06:54:08;6.80;99.90
81867;DHT22;71318;-36.550;-64.300;2023-09-07T06:56:34;6.80;99.90
81867;DHT22;71318;-36.550;-64.300;2023-09-07T06:59:00;6.80;99.90
81867;DHT22;71318;-36.550;-64.300;2023-09-07T07:01:27;6.80;99.90
81867;DHT22;71318;-36.550;-64.300;2023-09-07T07:03:53;6.80;99.90
81867;DHT22;71318;-36.550;-64.300;2023-09-07T07:06:20;6.70;99.90
81867;DHT22;71318;-36.550;-64.300;2023-09-07T07:08:46;6.70;99.90
81867;DHT22;71318;-36.550;-64.300;2023-09-07T07:11:13;6.70;99.90
81867;DHT22;71318;-36.550;-64.300;2023-09-07T07:13:39;6.80;99.90
81867;DHT22;71318;-36.550;-64.300;2023-09-07T07:16:05;6.70;99.90
81867;DHT22;71318;-36.550;-64.300;2023-09-07T07:18:32;6.70;99.90
81867;DHT22;71318;-36.550;-64.300;2023-09-07T07:20:58;6.70;99.90
81867;DHT22;71318;-36.550;-64.300;2023-09-07T07:23:25;6.70;99.90
81867;DHT22;71318;-36.550;-64.300;2023-09-07T07:25:51;6.70;99.90
81867;DHT22;71318;-36.550;-64.300;2023-09-07T07:28:18;6.70;99.90
81867;DHT22;71318;-36.550;-64.300;2023-09-07T07:30:45;6.70;99.90
81867;DHT22;71318;-36.550;-64.300;2023-09-07T07:33:11;6.70;99.90
81867;DHT22;71318;-36.550;-64.300;2023-09-07T07:35:37;6.70;99.90
81867;DHT22;71318;-36.550;-64.300;2023-09-07T07:38:04;6.70;99.90
81867;DHT22;71318;-36.550;-64.300;2023-09-07T07:40:30;6.70;99.90
81867;DHT22;71318;-36.550;-64.300;2023-09-07T07:42:57;6.70;99.90
81867;DHT22;71318;-36.550;-64.300;2023-09-07T07:45:23;6.70;99.90
81867;DHT22;71318;-36.550;-64.300;2023-09-07T07:47:50;6.60;99.90
81867;DHT22;71318;-36.550;-64.300;2023-09-07T07:50:16;6.60;99.90
81867;DHT22;71318;-36.550;-64.300;2023-09-07T07:52:43;6.60;99.90
81867;DHT22;71318;-36.550;-64.300;2023-09-07T07:55:10;6.50;99.90
81867;DHT22;71318;-36.550;-64.300;2023-09-07T07:57:36;6.60;99.90
81867;DHT22;71318;-36.550;-64.300;2023-09-07T08:00:03;6.50;99.90
81867;DHT22;71318;-36.550;-64.300;2023-09-07T08:02:30;6.50;99.90
81867;DHT22;71318;-36.550;-64.300;2023-09-07T08:04:57;6.50;99.90
81867;DHT22;71318;-36.550;-64.300;2023-09-07T08:07:24;6.50;99.90
81867;DHT22;71318;-36.550;-64.300;2023-09-07T08:09:52;6.50;99.90
81867;DHT22;71318;-36.550;-64.300;2023-09-07T08:12:18;6.50;99.90
81867;DHT22;71318;-36.550;-64.300;2023-09-07T08:14:45;6.50;99.90
81867;DHT22;71318;-36.550;-64.300;2023-09-07T08:17:12;6.50;99.90
81867;DHT22;71318;-36.550;-64.300;2023-09-07T08:19:38;6.50;99.90
81867;DHT22;71318;-36.550;-64.300;2023-09-07T08:22:05;6.50;99.90
81867;DHT22;71318;-36.550;-64.300;2023-09-07T08:24:32;6.50;99.90
81867;DHT22;71318;-36.550;-64.300;2023-09-07T08:26:58;6.50;99.90
81867;DHT22;71318;-36.550;-64.300;2023-09-07T08:29:26;6.50;99.90
81867;DHT22;71318;-36.550;-64.300;2023-09-07T08:31:53;6.50;99.90
81867;DHT22;71318;-36.550;-64.300;2023-09-07T08:34:19;6.50;99.90
81867;DHT22;71318;-36.550;-64.300;2023-09-07T08:36:48;6.50;99.90
81867;DHT22;71318;-36.550;-64.300;2023-09-07T08:39:15;6.50;99.90
81867;DHT22;71318;-36.550;-64.300;2023-09-07T08:41:43;6.50;99.90
81867;DHT22;71318;-36.550;-64.300;2023-09-07T08:44:10;6.50;99.90
81867;DHT22;71318;-36.550;-64.300;2023-09-07T08:46:37;6.50;99.90
81867;DHT22;71318;-36.550;-64.300;2023-09-07T08:49:03;6.40;99.90
81867;DHT22;71318;-36.550;-64.300;2023-09-07T08:51:30;6.50;99.90
81867;DHT22;71318;-36.550;-64.300;2023-09-07T08:54:02;6.50;99.90
81867;DHT22;71318;-36.550;-64.300;2023-09-07T08:56:29;6.40;99.90
81867;DHT22;71318;-36.550;-64.300;2023-09-07T08:58:55;6.50;99.90
81867;DHT22;71318;-36.550;-64.300;2023-09-07T09:01:22;6.50;99.90
81867;DHT22;71318;-36.550;-64.300;2023-09-07T09:03:49;6.50;99.90
81867;DHT22;71318;-36.550;-64.300;2023-09-07T09:06:19;6.50;99.90
81867;DHT22;71318;-36.550;-64.300;2023-09-07T09:08:46;6.50;99.90
81867;DHT22;71318;-36.550;-64.300;2023-09-07T09:11:16;6.40;99.90
81867;DHT22;71318;-36.550;-64.300;2023-09-07T09:13:43;6.50;99.90
81867;DHT22;71318;-36.550;-64.300;2023-09-07T09:16:10;6.40;99.90
81867;DHT22;71318;-36.550;-64.300;2023-09-07T09:18:36;6.50;99.90
81867;DHT22;71318;-36.550;-64.300;2023-09-07T09:21:03;6.50;99.90
81867;DHT22;71318;-36.550;-64.300;2023-09-07T09:23:34;6.50;99.90
81867;DHT22;71318;-36.550;-64.300;2023-09-07T09:26:01;6.50;99.90
81867;DHT22;71318;-36.550;-64.300;2023-09-07T09:28:30;6.50;99.90
81867;DHT22;71318;-36.550;-64.300;2023-09-07T09:31:01;6.50;99.90
81867;DHT22;71318;-36.550;-64.300;2023-09-07T09:33:30;6.50;99.90
81867;DHT22;71318;-36.550;-64.300;2023-09-07T09:35:57;6.50;99.90
81867;DHT22;71318;-36.550;-64.300;2023-09-07T09:38:23;6.50;99.90
81867;DHT22;71318;-36.550;-64.300;2023-09-07T09:40:51;6.50;99.90
81867;DHT22;71318;-36.550;-64.300;2023-09-07T09:43:19;6.50;99.90
81867;DHT22;71318;-36.550;-64.300;2023-09-07T09:45:46;6.40;99.90
81867;DHT22;71318;-36.550;-64.300;2023-09-07T09:48:12;6.40;99.90
81867;DHT22;71318;-36.550;-64.300;2023-09-07T09:50:40;6.40;99.90
81867;DHT22;71318;-36.550;-64.300;2023-09-07T09:53:08;6.40;99.90
81867;DHT22;71318;-36.550;-64.300;2023-09-07T09:55:34;6.40;99.90
81867;DHT22;71318;-36.550;-64.300;2023-09-07T09:58:01;6.40;99.90
81867;DHT22;71318;-36.550;-64.300;2023-09-07T10:00:28;6.40;99.90
81867;DHT22;71318;-36.550;-64.300;2023-09-07T10:03:05;6.50;99.90
81867;DHT22;71318;-36.550;-64.300;2023-09-07T10:05:33;6.40;99.90
81867;DHT22;71318;-36.550;-64.300;2023-09-07T10:08:03;6.40;99.90
81867;DHT22;71318;-36.550;-64.300;2023-09-07T10:10:35;6.40;99.90
81867;DHT22;71318;-36.550;-64.300;2023-09-07T10:13:02;6.40;99.90
81867;DHT22;71318;-36.550;-64.300;2023-09-07T10:15:29;6.40;99.90
81867;DHT22;71318;-36.550;-64.300;2023-09-07T10:18:09;6.40;99.90
81867;DHT22;71318;-36.550;-64.300;2023-09-07T10:20:49;6.40;99.90
81867;DHT22;71318;-36.550;-64.300;2023-09-07T10:23:15;6.30;99.90
81867;DHT22;71318;-36.550;-64.300;2023-09-07T10:25:42;6.40;99.90
81867;DHT22;71318;-36.550;-64.300;2023-09-07T10:28:18;6.40;99.90
81867;DHT22;71318;-36.550;-64.300;2023-09-07T10:30:45;6.40;99.90
81867;DHT22;71318;-36.550;-64.300;2023-09-07T10:33:21;6.40;99.90
81867;DHT22;71318;-36.550;-64.300;2023-09-07T10:35:47;6.40;99.90
81867;DHT22;71318;-36.550;-64.300;2023-09-07T10:38:14;6.50;99.90
81867;DHT22;71318;-36.550;-64.300;2023-09-07T10:40:41;6.50;99.90
81867;DHT22;71318;-36.550;-64.300;2023-09-07T10:43:10;6.50;99.90
81867;DHT22;71318;-36.550;-64.300;2023-09-07T10:45:36;6.50;99.90
81867;DHT22;71318;-36.550;-64.300;2023-09-07T10:48:03;6.50;99.90
81867;DHT22;71318;-36.550;-64.300;2023-09-07T10:50:43;6.40;99.90
81867;DHT22;71318;-36.550;-64.300;2023-09-07T10:53:11;6.50;99.90
81867;DHT22;71318;-36.550;-64.300;2023-09-07T10:55:38;6.50;99.90
81867;DHT22;71318;-36.550;-64.300;2023-09-07T10:58:10;6.50;99.90
81867;DHT22;71318;-36.550;-64.300;2023-09-07T11:00:36;6.60;99.90
81867;DHT22;71318;-36.550;-64.300;2023-09-07T11:03:09;6.50;99.90
81867;DHT22;71318;-36.550;-64.300;2023-09-07T11:05:37;6.50;99.90
81867;DHT22;71318;-36.550;-64.300;2023-09-07T11:08:04;6.50;99.90
81867;DHT22;71318;-36.550;-64.300;2023-09-07T11:10:34;6.50;99.90
81867;DHT22;71318;-36.550;-64.300;2023-09-07T11:13:01;6.40;99.90
81867;DHT22;71318;-36.550;-64.300;2023-09-07T11:15:29;6.50;99.90
81867;DHT22;71318;-36.550;-64.300;2023-09-07T11:17:55;6.50;99.90
81867;DHT22;71318;-36.550;-64.300;2023-09-07T11:20:22;6.60;99.90
81867;DHT22;71318;-36.550;-64.300;2023-09-07T11:22:50;6.60;99.90
81867;DHT22;71318;-36.550;-64.300;2023-09-07T11:25:16;6.60;99.90
81867;DHT22;71318;-36.550;-64.300;2023-09-07T11:27:43;6.70;99.90
81867;DHT22;71318;-36.550;-64.300;2023-09-07T11:30:10;6.70;99.90
81867;DHT22;71318;-36.550;-64.300;2023-09-07T11:32:39;6.70;99.90
81867;DHT22;71318;-36.550;-64.300;2023-09-07T11:35:10;6.70;99.90
81867;DHT22;71318;-36.550;-64.300;2023-09-07T11:37:37;6.70;99.90
81867;DHT22;71318;-36.550;-64.300;2023-09-07T11:40:04;6.70;99.90
81867;DHT22;71318;-36.550;-64.300;2023-09-07T11:42:36;6.70;99.90
81867;DHT22;71318;-36.550;-64.300;2023-09-07T11:45:04;6.70;99.90
81867;DHT22;71318;-36.550;-64.300;2023-09-07T11:47:31;6.70;99.90
81867;DHT22;71318;-36.550;-64.300;2023-09-07T11:49:58;6.70;99.90
81867;DHT22;71318;-36.550;-64.300;2023-09-07T11:52:24;6.70;99.90
81867;DHT22;71318;-36.550;-64.300;2023-09-07T11:54:54;6.60;99.90
81867;DHT22;71318;-36.550;-64.300;2023-09-07T11:57:21;6.60;99.90
81867;DHT22;71318;-36.550;-64.300;2023-09-07T11:59:47;6.80;99.90
81867;DHT22;71318;-36.550;-64.300;2023-09-07T12:02:16;6.70;99.90
81867;DHT22;71318;-36.550;-64.300;2023-09-07T12:04:43;6.80;99.90
81867;DHT22;71318;-36.550;-64.300;2023-09-07T12:07:10;6.70;99.90
81867;DHT22;71318;-36.550;-64.300;2023-09-07T12:09:36;6.70;99.90
81867;DHT22;71318;-36.550;-64.300;2023-09-07T12:12:03;6.80;99.90
81867;DHT22;71318;-36.550;-64.300;2023-09-07T12:14:29;6.80;99.90
81867;DHT22;71318;-36.550;-64.300;2023-09-07T12:16:57;6.80;99.90
81867;DHT22;71318;-36.550;-64.300;2023-09-07T12:19:23;6.80;99.90
81867;DHT22;71318;-36.550;-64.300;2023-09-07T12:21:51;6.90;99.90
81867;DHT22;71318;-36.550;-64.300;2023-09-07T12:24:18;6.90;99.90
81867;DHT22;71318;-36.550;-64.300;2023-09-07T12:26:44;6.80;99.90
81867;DHT22;71318;-36.550;-64.300;2023-09-07T12:29:11;6.80;99.90
81867;DHT22;71318;-36.550;-64.300;2023-09-07T12:31:37;6.80;99.90
81867;DHT22;71318;-36.550;-64.300;2023-09-07T12:34:04;7.00;99.90
81867;DHT22;71318;-36.550;-64.300;2023-09-07T12:36:30;7.00;99.90
81867;DHT22;71318;-36.550;-64.300;2023-09-07T12:38:57;6.80;99.90
81867;DHT22;71318;-36.550;-64.300;2023-09-07T12:41:27;6.70;99.90
81867;DHT22;71318;-36.550;-64.300;2023-09-07T12:43:54;6.80;99.90
81867;DHT22;71318;-36.550;-64.300;2023-09-07T12:46:20;6.70;99.90
81867;DHT22;71318;-36.550;-64.300;2023-09-07T12:48:48;6.70;99.90
81867;DHT22;71318;-36.550;-64.300;2023-09-07T12:51:15;6.80;99.90
81867;DHT22;71318;-36.550;-64.300;2023-09-07T12:53:42;6.80;99.90
81867;DHT22;71318;-36.550;-64.300;2023-09-07T12:56:08;6.80;99.90
81867;DHT22;71318;-36.550;-64.300;2023-09-07T12:58:35;6.80;99.90
81867;DHT22;71318;-36.550;-64.300;2023-09-07T13:01:01;7.00;99.90
81867;DHT22;71318;-36.550;-64.300;2023-09-07T13:03:28;7.10;99.90
81867;DHT22;71318;-36.550;-64.300;2023-09-07T13:05:54;7.10;99.90
81867;DHT22;71318;-36.550;-64.300;2023-09-07T13:08:21;7.10;99.90
81867;DHT22;71318;-36.550;-64.300;2023-09-07T13:10:48;7.10;99.90
81867;DHT22;71318;-36.550;-64.300;2023-09-07T13:13:15;6.90;99.90
81867;DHT22;71318;-36.550;-64.300;2023-09-07T13:15:42;6.90;99.90
81867;DHT22;71318;-36.550;-64.300;2023-09-07T13:18:09;7.00;99.90
81867;DHT22;71318;-36.550;-64.300;2023-09-07T13:20:35;7.00;99.90
81867;DHT22;71318;-36.550;-64.300;2023-09-07T13:23:01;7.10;99.90
81867;DHT22;71318;-36.550;-64.300;2023-09-07T13:25:28;7.10;99.90
81867;DHT22;71318;-36.550;-64.300;2023-09-07T13:27:54;7.10;99.90
81867;DHT22;71318;-36.550;-64.300;2023-09-07T13:30:22;7.20;99.90
81867;DHT22;71318;-36.550;-64.300;2023-09-07T13:32:48;7.20;99.90
81867;DHT22;71318;-36.550;-64.300;2023-09-07T13:35:15;7.30;99.90
81867;DHT22;71318;-36.550;-64.300;2023-09-07T13:37:42;7.30;99.90
81867;DHT22;71318;-36.550;-64.300;2023-09-07T13:40:09;7.30;99.90
81867;DHT22;71318;-36.550;-64.300;2023-09-07T13:42:36;7.30;99.90
81867;DHT22;71318;-36.550;-64.300;2023-09-07T13:45:04;7.30;99.90
81867;DHT22;71318;-36.550;-64.300;2023-09-07T13:47:31;7.30;99.90
81867;DHT22;71318;-36.550;-64.300;2023-09-07T13:49:57;7.20;99.90
81867;DHT22;71318;-36.550;-64.300;2023-09-07T13:52:23;7.20;99.90
81867;DHT22;71318;-36.550;-64.300;2023-09-07T13:54:50;7.20;99.90
81867;DHT22;71318;-36.550;-64.300;2023-09-07T13:57:16;7.20;99.90
81867;DHT22;71318;-36.550;-64.300;2023-09-07T13:59:42;7.30;99.90
81867;DHT22;71318;-36.550;-64.300;2023-09-07T14:02:09;7.40;99.90
81867;DHT22;71318;-36.550;-64.300;2023-09-07T14:04:35;7.40;99.90
81867;DHT22;71318;-36.550;-64.300;2023-09-07T14:07:02;7.40;99.90
81867;DHT22;71318;-36.550;-64.300;2023-09-07T14:09:28;7.40;99.90
81867;DHT22;71318;-36.550;-64.300;2023-09-07T14:11:54;7.40;99.90
81867;DHT22;71318;-36.550;-64.300;2023-09-07T14:14:21;7.50;99.90
81867;DHT22;71318;-36.550;-64.300;2023-09-07T14:16:48;7.50;99.90
81867;DHT22;71318;-36.550;-64.300;2023-09-07T14:19:16;7.50;99.90
81867;DHT22;71318;-36.550;-64.300;2023-09-07T14:21:42;7.60;99.90
81867;DHT22;71318;-36.550;-64.300;2023-09-07T14:24:08;7.90;99.90
81867;DHT22;71318;-36.550;-64.300;2023-09-07T14:26:36;7.90;99.90
81867;DHT22;71318;-36.550;-64.300;2023-09-07T14:29:03;8.00;99.90
81867;DHT22;71318;-36.550;-64.300;2023-09-07T14:31:31;8.10;99.90
81867;DHT22;71318;-36.550;-64.300;2023-09-07T14:33:58;8.20;99.90
81867;DHT22;71318;-36.550;-64.300;2023-09-07T14:36:24;8.00;99.90
81867;DHT22;71318;-36.550;-64.300;2023-09-07T14:38:52;8.00;99.90
81867;DHT22;71318;-36.550;-64.300;2023-09-07T14:41:19;8.10;99.90
81867;DHT22;71318;-36.550;-64.300;2023-09-07T14:43:46;8.40;99.90
81867;DHT22;71318;-36.550;-64.300;2023-09-07T14:46:12;8.40;99.90
81867;DHT22;71318;-36.550;-64.300;2023-09-07T14:48:39;8.50;99.90
81867;DHT22;71318;-36.550;-64.300;2023-09-07T14:51:05;8.60;99.90
81867;DHT22;71318;-36.550;-64.300;2023-09-07T14:53:31;8.60;99.90
81867;DHT22;71318;-36.550;-64.300;2023-09-07T14:55:58;8.60;99.90
81867;DHT22;71318;-36.550;-64.300;2023-09-07T14:58:24;8.80;99.90
81867;DHT22;71318;-36.550;-64.300;2023-09-07T15:00:51;8.80;99.90
81867;DHT22;71318;-36.550;-64.300;2023-09-07T15:03:17;8.80;99.90
81867;DHT22;71318;-36.550;-64.300;2023-09-07T15:05:44;8.80;99.90